Time;durP1;ratioP1;P1;durP2;ratioP2;P2;SDS_P1;SDS_P2;PMS_P1;PMS_P2;Temp;Humidity;BMP_temperature;BMP_pressure;BME280_temperature;BME280_humidity;BME280_pressure;Samples;Min_cycle;Max_cycle;Signal;HPM_P1;HPM_P2
2021/09/30 00:00:11;;;;;;;7.10;5.68;;;10.60;99.90;;;;;;2616179;54;20158;-40
2021/09/30 00:02:41;;;;;;;6.28;5.63;;;10.60;99.90;;;;;;2616800;54;20159;-40
2021/09/30 00:05:12;;;;;;;5.57;4.15;;;10.50;99.90;;;;;;2616859;54;20152;-40
2021/09/30 00:07:43;;;;;;;6.05;4.32;;;10.60;99.90;;;;;;2616563;54;20148;-41
2021/09/30 00:10:17;;;;;;;6.70;4.45;;;10.60;99.90;;;;;;2616445;54;20155;-42
2021/09/30 00:12:50;;;;;;;10.15;4.78;;;10.60;99.90;;;;;;2616797;54;20147;-41
2021/09/30 00:15:27;;;;;;;4.85;4.45;;;10.50;99.90;;;;;;2616586;54;20160;-40
2021/09/30 00:18:24;;;;;;;4.43;4.03;;;10.50;99.90;;;;;;2616561;54;20153;-41
2021/09/30 00:34:41;;;;;;;6.57;4.47;;;10.50;99.90;;;;;;2616731;54;20145;-41
2021/09/30 00:40:14;;;;;;;4.07;3.67;;;10.50;99.90;;;;;;2616581;54;20153;-41
2021/09/30 00:45:30;;;;;;;5.53;4.53;;;10.40;99.90;;;;;;2616224;54;20200;-42
2021/09/30 00:48:05;;;;;;;6.15;3.72;;;10.40;99.90;;;;;;2616408;54;20174;-41
2021/09/30 00:50:45;;;;;;;4.57;4.00;;;10.40;99.90;;;;;;2615815;47;20155;-43
2021/09/30 00:53:38;;;;;;;5.90;4.47;;;10.40;99.90;;;;;;2616826;47;20160;-42
2021/09/30 01:19:01;;;;;;;4.75;3.58;;;10.50;99.90;;;;;;2615669;54;20162;-40
2021/09/30 01:47:02;;;;;;;6.45;3.58;;;10.60;99.90;;;;;;2615562;54;20188;-41
2021/09/30 02:20:16;;;;;;;4.10;3.53;;;10.60;99.90;;;;;;2615508;54;20166;-40
2021/09/30 02:23:24;;;;;;;4.90;3.10;;;10.50;99.90;;;;;;2618225;54;20145;-41
2021/09/30 02:28:56;;;;;;;4.18;3.78;;;10.50;99.90;;;;;;2615910;54;20156;-41
2021/09/30 02:40:08;;;;;;;6.47;4.38;;;10.50;99.90;;;;;;2615524;54;20147;-41
2021/09/30 02:59:22;;;;;;;4.88;4.40;;;10.10;99.90;;;;;;2612560;54;20161;-42
2021/09/30 03:01:52;;;;;;;4.50;4.07;;;10.10;99.90;;;;;;2615456;54;20184;-40
2021/09/30 03:04:23;;;;;;;5.55;4.10;;;10.00;99.90;;;;;;2616433;39;20574;-40
2021/09/30 03:06:55;;;;;;;5.40;4.47;;;10.00;99.90;;;;;;2615358;54;20297;-40
2021/09/30 03:09:24;;;;;;;5.53;4.38;;;10.00;99.90;;;;;;2615284;54;20651;-39
2021/09/30 03:11:55;;;;;;;7.85;5.32;;;10.00;99.90;;;;;;2615551;54;20156;-41
2021/09/30 03:14:24;;;;;;;5.93;4.65;;;9.90;99.90;;;;;;2615657;54;20164;-40
2021/09/30 03:17:01;;;;;;;5.45;4.45;;;9.90;99.90;;;;;;2615822;50;20278;-41
2021/09/30 03:19:49;;;;;;;5.65;4.93;;;9.90;99.90;;;;;;2615739;54;20673;-40
2021/09/30 03:22:22;;;;;;;6.97;4.60;;;9.80;99.90;;;;;;2615469;51;20153;-41
2021/09/30 03:24:52;;;;;;;6.28;4.90;;;9.80;99.90;;;;;;2616491;39;20528;-40
2021/09/30 03:27:21;;;;;;;6.65;5.15;;;9.80;99.90;;;;;;2616040;54;20189;-41
2021/09/30 03:29:50;;;;;;;7.90;5.30;;;9.80;99.90;;;;;;2615405;54;20704;-40
2021/09/30 03:32:21;;;;;;;7.10;4.90;;;9.80;99.90;;;;;;2616075;54;20168;-41
2021/09/30 03:34:57;;;;;;;7.82;5.10;;;9.80;99.90;;;;;;2615515;54;20147;-41
2021/09/30 03:37:30;;;;;;;6.60;5.45;;;9.70;99.90;;;;;;2615846;54;20152;-43
2021/09/30 03:39:59;;;;;;;6.47;5.82;;;9.80;99.90;;;;;;2618573;54;20149;-41
2021/09/30 03:42:28;;;;;;;7.03;5.80;;;9.70;99.90;;;;;;2618931;54;20162;-41
2021/09/30 03:45:06;;;;;;;7.40;6.03;;;9.70;99.90;;;;;;2618974;54;20149;-40
2021/09/30 03:47:37;;;;;;;7.72;6.10;;;9.70;99.90;;;;;;2619042;39;20588;-41
2021/09/30 03:50:16;;;;;;;6.43;5.90;;;9.70;99.90;;;;;;2619048;39;20558;-41
2021/09/30 03:52:57;;;;;;;8.65;6.90;;;9.70;99.90;;;;;;2618127;51;20137;-40
2021/09/30 03:55:53;;;;;;;8.23;7.53;;;9.70;99.90;;;;;;2618220;39;20594;-40
2021/09/30 04:01:04;;;;;;;7.63;7.05;;;9.70;99.90;;;;;;2615262;54;20208;-40
2021/09/30 04:03:33;;;;;;;8.35;7.40;;;9.70;99.90;;;;;;2615491;54;20149;-40
2021/09/30 04:06:03;;;;;;;7.88;7.18;;;9.60;99.90;;;;;;2615678;54;20215;-41
2021/09/30 04:08:37;;;;;;;8.20;7.60;;;9.60;99.90;;;;;;2615161;54;20176;-40
2021/09/30 04:11:06;;;;;;;7.57;6.93;;;9.70;99.90;;;;;;2615352;54;20162;-43
2021/09/30 04:13:35;;;;;;;8.30;7.53;;;9.70;99.90;;;;;;2615965;54;20154;-40
2021/09/30 04:16:04;;;;;;;8.63;7.93;;;9.70;99.90;;;;;;2616157;54;20188;-40
2021/09/30 04:18:33;;;;;;;7.53;6.47;;;9.70;99.90;;;;;;2615608;46;20265;-41
2021/09/30 04:21:02;;;;;;;8.13;7.50;;;9.70;99.90;;;;;;2616182;54;20138;-40
2021/09/30 04:23:31;;;;;;;9.93;7.38;;;9.70;99.90;;;;;;2617039;54;20145;-44
2021/09/30 04:26:02;;;;;;;7.75;7.03;;;9.70;99.90;;;;;;2616038;54;20203;-40
2021/09/30 04:28:36;;;;;;;10.32;7.45;;;9.70;99.90;;;;;;2616661;54;20148;-41
2021/09/30 04:31:06;;;;;;;7.82;6.90;;;9.70;99.90;;;;;;2616031;54;20179;-41
2021/09/30 04:33:53;;;;;;;7.50;6.78;;;9.70;99.90;;;;;;2616169;39;20417;-40
2021/09/30 04:36:23;;;;;;;10.50;8.52;;;9.70;99.90;;;;;;2616389;39;20590;-41
2021/09/30 04:38:52;;;;;;;18.33;7.68;;;9.70;99.90;;;;;;2616094;54;20171;-41
2021/09/30 04:41:24;;;;;;;8.52;6.88;;;9.70;99.90;;;;;;2616490;39;20545;-41
2021/09/30 04:43:54;;;;;;;9.63;8.00;;;9.70;99.90;;;;;;2616083;54;20264;-40
2021/09/30 04:46:23;;;;;;;7.53;6.80;;;9.60;99.90;;;;;;2616815;54;20717;-41
2021/09/30 04:49:12;;;;;;;6.93;6.20;;;9.60;99.90;;;;;;2616550;54;20238;-40
2021/09/30 04:51:41;;;;;;;8.77;7.85;;;9.60;99.90;;;;;;2616019;54;20176;-42
2021/09/30 04:54:10;;;;;;;8.07;7.05;;;9.60;99.90;;;;;;2616008;54;20679;-41
2021/09/30 04:56:41;;;;;;;8.57;7.65;;;9.50;99.90;;;;;;2616580;54;20168;-41
2021/09/30 04:59:19;;;;;;;10.95;7.28;;;9.50;99.90;;;;;;2615926;54;20145;-40
2021/09/30 05:01:59;;;;;;;10.32;8.65;;;9.50;99.90;;;;;;2616011;54;20255;-40
2021/09/30 05:04:29;;;;;;;9.45;8.15;;;9.50;99.90;;;;;;2615962;47;20168;-40
2021/09/30 05:06:59;;;;;;;8.32;7.50;;;9.50;99.90;;;;;;2616240;54;20179;-40
2021/09/30 05:12:03;;;;;;;11.43;8.85;;;9.50;99.90;;;;;;2629454;47;20182;-79
2021/09/30 05:14:35;;;;;;;8.68;7.82;;;9.50;99.90;;;;;;2630993;47;20183;-78
2021/09/30 05:17:05;;;;;;;9.02;8.32;;;9.50;99.90;;;;;;2630234;54;20192;-79
2021/09/30 05:19:38;;;;;;;14.27;9.13;;;9.50;99.90;;;;;;2616240;54;20223;-41
2021/09/30 05:22:08;;;;;;;9.65;8.85;;;9.50;99.90;;;;;;2616247;54;20156;-39
2021/09/30 05:24:37;;;;;;;9.38;8.45;;;9.50;99.90;;;;;;2616724;54;20167;-40
2021/09/30 05:27:09;;;;;;;9.63;8.75;;;9.50;99.90;;;;;;2617172;54;20180;-39
2021/09/30 05:29:38;;;;;;;10.45;9.32;;;9.50;99.90;;;;;;2616195;54;20140;-40
2021/09/30 05:32:12;;;;;;;11.30;10.25;;;9.60;99.90;;;;;;2616203;39;20557;-40
2021/09/30 05:34:53;;;;;;;11.20;10.20;;;9.50;99.90;;;;;;2616031;54;20167;-41
2021/09/30 05:37:23;;;;;;;10.65;9.65;;;9.60;99.90;;;;;;2615756;54;20177;-41
2021/09/30 05:39:52;;;;;;;10.75;9.68;;;9.60;99.90;;;;;;2615957;54;20172;-39
2021/09/30 05:42:25;;;;;;;10.82;9.90;;;9.60;99.90;;;;;;2616433;39;20553;-40
2021/09/30 05:44:58;;;;;;;11.80;10.70;;;9.60;99.90;;;;;;2616076;46;20303;-40
2021/09/30 05:47:27;;;;;;;10.77;9.88;;;9.70;99.90;;;;;;2616144;54;20248;-40
2021/09/30 05:49:55;;;;;;;11.07;9.98;;;9.70;99.90;;;;;;2615952;54;20159;-40
2021/09/30 05:52:40;;;;;;;11.25;10.25;;;9.80;99.90;;;;;;2616365;54;20182;-40
2021/09/30 05:55:35;;;;;;;11.13;9.90;;;9.80;99.90;;;;;;2616039;54;20189;-40
2021/09/30 05:58:10;;;;;;;12.23;11.07;;;9.90;99.90;;;;;;2617344;39;20581;-40
2021/09/30 06:00:47;;;;;;;10.45;9.38;;;9.90;99.90;;;;;;2615872;47;20155;-40
2021/09/30 06:11:33;;;;;;;10.23;9.35;;;9.90;99.90;;;;;;2615742;54;20192;-39
2021/09/30 06:14:07;;;;;;;8.70;7.97;;;10.00;99.90;;;;;;2616919;39;20588;-40
2021/09/30 06:16:38;;;;;;;9.48;8.57;;;10.00;99.90;;;;;;2616321;54;20176;-42
2021/09/30 06:19:19;;;;;;;9.18;8.48;;;10.10;99.90;;;;;;2615722;46;20156;-41
2021/09/30 06:21:50;;;;;;;10.43;8.23;;;10.10;99.90;;;;;;2615820;54;20144;-39
2021/09/30 06:24:21;;;;;;;10.50;8.63;;;10.20;99.90;;;;;;2616054;47;20163;-39
2021/09/30 06:26:56;;;;;;;15.68;8.32;;;10.20;99.90;;;;;;2615633;54;20238;-39
2021/09/30 06:29:27;;;;;;;16.40;8.88;;;10.30;99.90;;;;;;2615716;54;20155;-39
2021/09/30 06:31:57;;;;;;;9.00;8.13;;;10.30;99.90;;;;;;2615956;46;20159;-41
2021/09/30 06:34:51;;;;;;;8.95;8.15;;;10.30;99.90;;;;;;2616541;54;20653;-40
2021/09/30 06:37:24;;;;;;;9.35;8.50;;;10.30;99.90;;;;;;2615838;54;20716;-39
2021/09/30 06:39:53;;;;;;;10.07;8.57;;;10.40;99.90;;;;;;2615687;54;20152;-40
2021/09/30 06:42:24;;;;;;;9.20;8.35;;;10.40;99.90;;;;;;2615344;54;20174;-40
2021/09/30 06:44:58;;;;;;;9.20;8.13;;;10.50;99.90;;;;;;2616272;54;20217;-41
2021/09/30 06:47:43;;;;;;;10.82;7.50;;;10.50;99.90;;;;;;2616212;54;20163;-41
2021/09/30 06:50:38;;;;;;;9.85;8.82;;;10.50;99.90;;;;;;2616061;54;20159;-41
2021/09/30 06:53:27;;;;;;;11.27;8.45;;;10.60;99.90;;;;;;2615840;54;20157;-40
2021/09/30 06:56:06;;;;;;;11.10;9.30;;;10.60;99.90;;;;;;2616481;54;20270;-41
2021/09/30 06:59:00;;;;;;;10.73;9.30;;;10.60;99.90;;;;;;2615811;39;20571;-40
2021/09/30 07:01:52;;;;;;;8.55;7.75;;;10.60;99.90;;;;;;2615108;54;20155;-41
2021/09/30 07:04:27;;;;;;;11.40;8.40;;;10.70;99.90;;;;;;2615216;54;20151;-41
2021/09/30 07:07:15;;;;;;;11.55;9.68;;;10.90;99.90;;;;;;2615245;54;20283;-40
2021/09/30 07:09:45;;;;;;;10.75;9.02;;;10.90;99.90;;;;;;2615519;54;20152;-40
2021/09/30 07:12:15;;;;;;;14.38;9.32;;;11.10;99.90;;;;;;2616564;39;20623;-40
2021/09/30 07:14:44;;;;;;;11.18;10.00;;;11.10;99.90;;;;;;2616186;54;20145;-40
2021/09/30 07:17:15;;;;;;;10.85;9.77;;;11.10;99.90;;;;;;2616289;39;20601;-39
2021/09/30 07:19:44;;;;;;;18.25;10.32;;;11.10;99.90;;;;;;2615233;54;20207;-40
2021/09/30 07:22:13;;;;;;;15.85;10.05;;;11.10;99.90;;;;;;2615583;54;20159;-40
2021/09/30 07:24:41;;;;;;;13.70;10.52;;;11.20;99.90;;;;;;2615741;54;20145;-40
2021/09/30 07:27:11;;;;;;;10.40;9.35;;;11.30;99.90;;;;;;2615298;54;20187;-41
2021/09/30 07:29:41;;;;;;;10.95;9.93;;;11.40;99.90;;;;;;2615820;54;20139;-37
2021/09/30 07:32:10;;;;;;;12.55;10.05;;;11.40;99.90;;;;;;2615850;54;20143;-40
2021/09/30 07:34:41;;;;;;;9.38;8.48;;;11.40;99.90;;;;;;2615307;54;20164;-39
2021/09/30 07:37:10;;;;;;;9.52;8.55;;;11.50;99.90;;;;;;2615158;54;20220;-39
2021/09/30 07:39:39;;;;;;;11.75;8.57;;;11.70;99.90;;;;;;2615407;54;20196;-42
2021/09/30 07:42:08;;;;;;;11.55;7.43;;;11.70;99.90;;;;;;2613553;54;20688;-40
2021/09/30 07:44:37;;;;;;;11.30;7.75;;;11.60;99.90;;;;;;2615560;54;20163;-40
2021/09/30 07:47:06;;;;;;;7.32;6.63;;;11.60;99.90;;;;;;2615814;39;20517;-41
2021/09/30 07:49:35;;;;;;;9.00;7.00;;;11.60;99.90;;;;;;2615265;39;20450;-39
2021/09/30 07:52:07;;;;;;;11.00;7.30;;;11.60;99.90;;;;;;2615768;54;20153;-41
2021/09/30 07:54:36;;;;;;;8.65;6.70;;;11.60;99.90;;;;;;2616370;54;20683;-41
2021/09/30 07:57:05;;;;;;;8.02;6.03;;;11.80;99.90;;;;;;2616247;46;20205;-41
2021/09/30 07:59:34;;;;;;;10.95;7.07;;;11.80;99.90;;;;;;2616581;54;20482;-41
2021/09/30 08:02:04;;;;;;;9.70;7.15;;;11.90;99.90;;;;;;2616625;54;20679;-41
2021/09/30 08:04:32;;;;;;;7.07;6.25;;;12.00;99.90;;;;;;2616221;54;20689;-40
2021/09/30 08:07:05;;;;;;;7.60;5.97;;;12.10;99.90;;;;;;2616283;54;20187;-41
2021/09/30 08:09:37;;;;;;;6.22;5.30;;;12.10;99.90;;;;;;2616906;54;20145;-40
2021/09/30 08:12:07;;;;;;;6.78;5.43;;;12.10;99.90;;;;;;2617188;39;20546;-40
2021/09/30 08:14:37;;;;;;;11.15;5.07;;;12.20;99.90;;;;;;2616506;54;20179;-40
2021/09/30 08:17:06;;;;;;;6.90;4.88;;;12.40;99.90;;;;;;2616465;54;20199;-40
2021/09/30 08:19:35;;;;;;;8.43;4.90;;;12.40;99.90;;;;;;2616682;54;20156;-40
2021/09/30 08:22:03;;;;;;;13.73;6.50;;;12.60;99.90;;;;;;2617022;54;20155;-41
2021/09/30 08:24:33;;;;;;;7.60;5.55;;;12.70;99.90;;;;;;2616767;54;20195;-40
2021/09/30 08:27:05;;;;;;;10.80;5.72;;;12.70;99.90;;;;;;2616345;54;20196;-40
2021/09/30 08:29:35;;;;;;;6.47;3.72;;;12.90;99.90;;;;;;2616556;54;20173;-41
2021/09/30 08:32:04;;;;;;;6.70;3.75;;;13.00;99.90;;;;;;2616603;47;20152;-40
2021/09/30 08:34:32;;;;;;;5.57;4.95;;;13.10;99.90;;;;;;2616666;54;20161;-40
2021/09/30 08:37:01;;;;;;;6.72;3.75;;;13.10;99.90;;;;;;2616376;54;20192;-40
2021/09/30 08:39:30;;;;;;;10.45;4.53;;;13.10;99.90;;;;;;2616322;54;20134;-40
2021/09/30 08:41:59;;;;;;;8.43;3.75;;;13.10;99.90;;;;;;2616351;54;20689;-40
2021/09/30 08:44:31;;;;;;;6.75;4.20;;;13.40;99.90;;;;;;2616143;54;20156;-43
2021/09/30 08:47:00;;;;;;;11.35;4.90;;;13.50;99.90;;;;;;2616695;31;20607;-40
2021/09/30 08:49:29;;;;;;;9.77;4.68;;;13.70;99.90;;;;;;2616544;54;20164;-44
2021/09/30 08:51:58;;;;;;;8.95;4.10;;;13.50;99.90;;;;;;2615688;47;20176;-41
2021/09/30 08:54:27;;;;;;;4.18;3.78;;;13.60;99.90;;;;;;2616289;54;20141;-42
2021/09/30 08:56:56;;;;;;;8.88;4.00;;;13.50;99.90;;;;;;2616213;54;20197;-44
2021/09/30 08:59:31;;;;;;;9.88;4.38;;;13.60;99.90;;;;;;2618837;54;20141;-40
2021/09/30 09:02:09;;;;;;;7.80;3.95;;;13.70;99.90;;;;;;2620349;54;20693;-43
2021/09/30 09:04:52;;;;;;;7.05;3.25;;;13.80;99.90;;;;;;2620490;54;20263;-43
2021/09/30 09:07:25;;;;;;;10.18;4.55;;;13.90;99.90;;;;;;2619878;54;20188;-40
2021/09/30 09:09:54;;;;;;;9.32;4.35;;;13.80;99.90;;;;;;2620055;46;20160;-41
2021/09/30 09:12:23;;;;;;;5.55;3.90;;;13.90;99.90;;;;;;2619378;54;20146;-42
2021/09/30 09:14:55;;;;;;;11.80;3.55;;;14.00;99.90;;;;;;2619589;54;20706;-42
2021/09/30 09:17:24;;;;;;;8.85;4.20;;;14.30;99.90;;;;;;2619006;54;20192;-42
2021/09/30 09:19:55;;;;;;;6.90;3.45;;;14.50;99.90;;;;;;2616020;54;20153;-43
2021/09/30 09:22:26;;;;;;;7.15;2.85;;;14.60;99.90;;;;;;2616247;54;20157;-41
2021/09/30 09:24:59;;;;;;;9.10;3.17;;;14.50;99.90;;;;;;2616459;54;20149;-43
2021/09/30 09:27:46;;;;;;;9.93;3.20;;;14.50;99.90;;;;;;2616770;39;20523;-40
2021/09/30 09:30:34;;;;;;;8.05;2.65;;;14.60;99.90;;;;;;2616355;54;20156;-42
2021/09/30 09:33:21;;;;;;;5.50;2.78;;;14.70;99.90;;;;;;2616754;54;20149;-42
2021/09/30 09:36:01;;;;;;;13.15;4.18;;;14.90;99.90;;;;;;2616293;54;20717;-42
2021/09/30 09:38:32;;;;;;;24.08;12.85;;;14.80;99.90;;;;;;2616356;47;20149;-43
2021/09/30 09:41:05;;;;;;;10.70;3.60;;;15.10;99.90;;;;;;2616123;54;20150;-42
2021/09/30 09:43:40;;;;;;;8.80;2.92;;;15.10;99.90;;;;;;2615674;54;20160;-41
2021/09/30 09:46:14;;;;;;;8.57;2.85;;;15.10;99.90;;;;;;2615360;54;20184;-42
2021/09/30 09:48:56;;;;;;;3.90;3.10;;;15.20;99.90;;;;;;2616352;54;20145;-42
2021/09/30 09:51:25;;;;;;;11.73;3.47;;;15.10;99.90;;;;;;2616134;54;20149;-41
2021/09/30 09:53:58;;;;;;;8.23;2.50;;;15.20;99.90;;;;;;2615943;47;20149;-41
2021/09/30 09:56:27;;;;;;;7.72;2.88;;;15.30;99.90;;;;;;2616248;54;20177;-41
2021/09/30 09:58:58;;;;;;;6.35;2.72;;;15.10;99.90;;;;;;2616339;54;20652;-42
2021/09/30 10:01:40;;;;;;;6.53;2.55;;;15.30;99.90;;;;;;2616328;54;20172;-44
2021/09/30 10:04:09;;;;;;;9.85;2.53;;;15.50;99.90;;;;;;2617991;54;20133;-40
2021/09/30 10:06:40;;;;;;;6.55;1.95;;;15.80;99.90;;;;;;2616428;47;20223;-41
2021/09/30 10:09:11;;;;;;;2.88;2.42;;;15.80;99.90;;;;;;2615669;54;20662;-42
2021/09/30 10:11:40;;;;;;;7.82;2.33;;;15.80;99.90;;;;;;2616384;54;20284;-42
2021/09/30 10:14:12;;;;;;;3.38;2.10;;;16.10;99.90;;;;;;2616383;54;20273;-41
2021/09/30 10:16:49;;;;;;;7.40;2.28;;;16.20;99.90;;;;;;2615204;54;20207;-42
2021/09/30 10:19:20;;;;;;;8.32;2.05;;;16.20;99.90;;;;;;2616315;54;20157;-42
2021/09/30 10:21:49;;;;;;;4.68;2.42;;;16.60;99.90;;;;;;2616341;54;20153;-42
2021/09/30 10:24:20;;;;;;;8.82;3.65;;;16.70;99.90;;;;;;2616526;46;20256;-42
2021/09/30 10:26:53;;;;;;;4.18;1.77;;;17.20;99.90;;;;;;2616226;54;20196;-41
2021/09/30 10:29:39;;;;;;;8.77;1.75;;;18.10;99.90;;;;;;2616281;47;20157;-42
2021/09/30 10:32:12;;;;;;;7.93;1.83;;;18.50;99.90;;;;;;2616551;54;20175;-42
2021/09/30 10:34:44;;;;;;;4.80;1.88;;;18.20;99.90;;;;;;2616538;54;20153;-42
2021/09/30 10:37:22;;;;;;;7.28;1.80;;;19.00;99.90;;;;;;2617249;31;20702;-41
2021/09/30 10:40:18;;;;;;;3.33;1.70;;;17.80;99.90;;;;;;2616755;54;20145;-40
2021/09/30 10:42:53;;;;;;;4.18;2.15;;;18.10;99.90;;;;;;2616752;54;20141;-40
2021/09/30 10:45:25;;;;;;;6.15;2.17;;;18.50;99.90;;;;;;2616743;54;20180;-41
2021/09/30 10:48:07;;;;;;;10.27;2.63;;;18.90;99.90;;;;;;2616262;54;20669;-41
2021/09/30 10:50:47;;;;;;;7.40;1.73;;;18.20;99.90;;;;;;2616340;54;20145;-42
2021/09/30 10:53:16;;;;;;;9.95;2.38;;;18.10;99.90;;;;;;2616660;39;20547;-40
2021/09/30 10:55:45;;;;;;;5.63;2.78;;;18.50;99.90;;;;;;2616144;54;20184;-41
2021/09/30 10:58:24;;;;;;;10.68;2.03;;;18.40;99.90;;;;;;2616248;47;20196;-40
2021/09/30 11:00:59;;;;;;;9.30;2.78;;;18.90;99.90;;;;;;2616100;54;20162;-41
2021/09/30 11:03:30;;;;;;;8.13;2.33;;;19.10;99.90;;;;;;2617027;54;20145;-40
2021/09/30 11:06:26;;;;;;;6.60;1.75;;;18.80;99.90;;;;;;2617002;39;20583;-40
2021/09/30 11:09:11;;;;;;;5.18;2.58;;;18.80;99.90;;;;;;2616520;54;20146;-42
2021/09/30 11:11:41;;;;;;;8.02;2.13;;;19.50;99.90;;;;;;2616130;54;20176;-40
2021/09/30 11:14:24;;;;;;;6.53;2.22;;;19.30;99.90;;;;;;2615941;54;20179;-40
2021/09/30 11:16:57;;;;;;;4.43;1.65;;;19.00;99.90;;;;;;2616230;54;20189;-40
2021/09/30 11:19:38;;;;;;;3.75;1.70;;;18.40;99.90;;;;;;2615966;47;20153;-42
2021/09/30 11:22:08;;;;;;;7.70;2.72;;;17.60;99.90;;;;;;2616145;54;20710;-42
2021/09/30 11:24:39;;;;;;;6.00;2.67;;;17.90;99.90;;;;;;2614252;54;20157;-40
2021/09/30 11:27:16;;;;;;;7.63;2.17;;;17.80;99.90;;;;;;2615143;54;20765;-41
2021/09/30 11:29:45;;;;;;;5.00;1.77;;;17.60;99.90;;;;;;2615241;54;20179;-41
2021/09/30 11:32:28;;;;;;;6.13;1.70;;;17.90;99.90;;;;;;2616114;54;20710;-42
2021/09/30 11:35:06;;;;;;;7.28;2.35;;;17.70;99.90;;;;;;2617404;39;20617;-43
2021/09/30 11:37:46;;;;;;;3.53;1.58;;;17.50;99.90;;;;;;2616726;54;20192;-41
2021/09/30 11:40:21;;;;;;;10.80;2.00;;;17.30;99.90;;;;;;2616697;54;20172;-42
2021/09/30 11:42:53;;;;;;;3.63;2.25;;;17.10;99.90;;;;;;2616978;54;20163;-41
2021/09/30 11:45:25;;;;;;;6.70;1.80;;;17.50;99.90;;;;;;2617481;39;20531;-41
2021/09/30 11:48:02;;;;;;;6.90;2.17;;;17.90;99.90;;;;;;2616648;54;20164;-42
2021/09/30 11:50:34;;;;;;;4.20;1.90;;;18.30;99.90;;;;;;2617109;54;20156;-41
2021/09/30 11:53:09;;;;;;;5.10;2.10;;;18.80;99.90;;;;;;2617371;54;20138;-41
2021/09/30 11:55:43;;;;;;;3.85;1.70;;;18.40;99.90;;;;;;2616729;54;20163;-41
2021/09/30 11:58:15;;;;;;;4.80;1.85;;;17.50;99.90;;;;;;2617097;54;20175;-40
2021/09/30 12:00:46;;;;;;;7.60;2.00;;;16.90;99.90;;;;;;2617185;54;20167;-41
2021/09/30 12:03:15;;;;;;;3.30;1.80;;;16.30;99.90;;;;;;2617233;54;20276;-41
2021/09/30 12:05:47;;;;;;;5.45;2.08;;;16.30;99.90;;;;;;2617392;54;20149;-40
2021/09/30 12:08:17;;;;;;;7.88;2.35;;;16.90;99.90;;;;;;2617057;54;20153;-41
2021/09/30 12:10:46;;;;;;;4.18;1.45;;;17.10;99.90;;;;;;2617034;54;20160;-40
2021/09/30 12:13:17;;;;;;;4.63;1.98;;;17.10;99.90;;;;;;2617111;54;20280;-42
2021/09/30 12:15:46;;;;;;;4.13;1.60;;;17.10;99.90;;;;;;2617357;31;20648;-39
2021/09/30 12:18:23;;;;;;;10.20;2.97;;;17.40;99.90;;;;;;2616882;54;20683;-42
2021/09/30 12:20:58;;;;;;;2.33;1.33;;;17.50;99.90;;;;;;2617099;54;20138;-41
2021/09/30 12:23:28;;;;;;;5.68;1.65;;;17.70;99.90;;;;;;2617278;54;20188;-41
2021/09/30 12:25:57;;;;;;;5.88;1.52;;;17.60;99.90;;;;;;2617389;54;20145;-41
2021/09/30 12:28:26;;;;;;;6.97;1.83;;;17.20;99.90;;;;;;2617116;54;20142;-40
2021/09/30 12:30:55;;;;;;;6.63;1.50;;;16.70;99.90;;;;;;2617187;54;20156;-41
2021/09/30 12:33:32;;;;;;;4.85;2.33;;;16.60;99.90;;;;;;2616957;54;20169;-41
2021/09/30 12:36:08;;;;;;;5.22;2.22;;;16.60;99.90;;;;;;2616847;54;20149;-41
2021/09/30 12:38:39;;;;;;;4.95;1.85;;;16.60;99.90;;;;;;2616711;54;20205;-41
2021/09/30 12:41:08;;;;;;;5.30;1.92;;;16.50;99.90;;;;;;2616424;54;20149;-41
2021/09/30 12:43:42;;;;;;;7.70;2.22;;;16.70;99.90;;;;;;2616851;54;20184;-43
2021/09/30 12:46:13;;;;;;;5.20;2.30;;;17.30;99.90;;;;;;2616759;54;20148;-41
2021/09/30 12:48:42;;;;;;;1.67;1.25;;;18.10;99.90;;;;;;2616733;54;20280;-41
2021/09/30 12:51:15;;;;;;;7.72;1.98;;;18.60;99.90;;;;;;2616974;54;20141;-41
2021/09/30 12:53:46;;;;;;;4.53;2.10;;;18.10;99.90;;;;;;2617359;54;20195;-43
2021/09/30 12:56:17;;;;;;;6.35;1.70;;;17.70;99.90;;;;;;2617008;54;20145;-41
2021/09/30 12:58:48;;;;;;;6.95;2.05;;;17.80;99.90;;;;;;2616871;54;20141;-41
2021/09/30 13:01:30;;;;;;;5.45;2.10;;;17.40;99.90;;;;;;2616896;54;20145;-42
2021/09/30 13:04:14;;;;;;;4.03;2.10;;;17.30;99.90;;;;;;2616938;54;20192;-43
2021/09/30 13:06:56;;;;;;;5.45;2.60;;;17.20;99.90;;;;;;2616920;54;20149;-42
2021/09/30 13:09:28;;;;;;;4.05;1.75;;;16.80;99.90;;;;;;2616875;54;20149;-43
2021/09/30 13:11:58;;;;;;;8.50;1.80;;;16.40;99.90;;;;;;2617143;54;20658;-42
2021/09/30 13:14:31;;;;;;;5.65;1.65;;;16.60;99.90;;;;;;2616913;54;20185;-42
2021/09/30 13:17:15;;;;;;;6.38;1.90;;;17.10;99.90;;;;;;2617019;54;20229;-41
2021/09/30 13:19:49;;;;;;;10.68;3.25;;;17.40;99.90;;;;;;2617345;39;20670;-41
2021/09/30 13:22:22;;;;;;;2.95;1.45;;;17.40;99.90;;;;;;2617226;54;20153;-40
2021/09/30 13:24:52;;;;;;;7.15;2.30;;;17.40;99.90;;;;;;2616919;54;20191;-40
2021/09/30 13:27:23;;;;;;;6.38;2.10;;;17.10;99.90;;;;;;2616583;54;20138;-42
2021/09/30 13:29:53;;;;;;;5.18;2.03;;;17.40;99.90;;;;;;2616782;39;20618;-41
2021/09/30 13:32:24;;;;;;;3.30;1.80;;;17.60;99.90;;;;;;2616606;54;20138;-41
2021/09/30 13:34:54;;;;;;;3.78;1.55;;;17.80;99.90;;;;;;2616786;54;20734;-40
2021/09/30 13:37:26;;;;;;;5.70;2.00;;;17.80;99.90;;;;;;2615192;54;20516;-41
2021/09/30 13:39:59;;;;;;;5.50;2.35;;;17.00;99.90;;;;;;2616627;54;20164;-41
2021/09/30 13:42:29;;;;;;;5.32;2.20;;;16.60;99.90;;;;;;2616447;51;20157;-41
2021/09/30 13:44:59;;;;;;;5.47;1.98;;;16.70;99.90;;;;;;2616878;54;20179;-41
2021/09/30 13:47:28;;;;;;;4.25;2.13;;;16.80;99.90;;;;;;2616782;54;20141;-41
2021/09/30 13:49:58;;;;;;;13.07;2.30;;;16.50;99.90;;;;;;2616250;54;20175;-41
2021/09/30 13:52:30;;;;;;;2.20;1.30;;;16.20;99.90;;;;;;2616981;39;20568;-41
2021/09/30 13:54:59;;;;;;;3.70;1.73;;;16.10;99.90;;;;;;2616882;54;20235;-40
2021/09/30 13:57:29;;;;;;;8.90;2.47;;;16.40;99.90;;;;;;2616723;54;20168;-42
2021/09/30 13:59:57;;;;;;;4.50;1.85;;;16.80;99.90;;;;;;2616665;54;20156;-41
2021/09/30 14:02:26;;;;;;;3.25;1.30;;;17.30;99.90;;;;;;2616431;54;20153;-40
2021/09/30 14:04:55;;;;;;;3.10;1.38;;;17.40;99.90;;;;;;2616627;54;20177;-41
2021/09/30 14:07:24;;;;;;;4.10;1.92;;;17.20;99.90;;;;;;2616519;54;20670;-41
2021/09/30 14:09:55;;;;;;;3.90;1.83;;;17.20;99.90;;;;;;2616656;54;20142;-41
2021/09/30 14:12:24;;;;;;;4.60;2.05;;;17.80;99.90;;;;;;2616759;51;20172;-41
2021/09/30 14:14:53;;;;;;;5.18;2.28;;;17.60;99.90;;;;;;2617076;39;20623;-40
2021/09/30 14:17:22;;;;;;;3.97;1.70;;;17.10;99.90;;;;;;2616446;54;20145;-41
2021/09/30 14:19:50;;;;;;;3.08;1.60;;;16.80;99.90;;;;;;2617083;39;20561;-41
2021/09/30 14:22:20;;;;;;;4.55;1.95;;;17.00;99.90;;;;;;2616916;54;20142;-41
2021/09/30 14:24:48;;;;;;;7.43;2.58;;;17.70;99.90;;;;;;2616957;54;20208;-41
2021/09/30 14:27:21;;;;;;;4.00;1.63;;;17.40;99.90;;;;;;2616599;54;20149;-41
2021/09/30 14:29:50;;;;;;;5.35;1.63;;;17.40;99.90;;;;;;2617221;39;20566;-41
2021/09/30 14:32:19;;;;;;;5.07;2.20;;;17.70;99.90;;;;;;2617074;39;20582;-41
2021/09/30 14:34:48;;;;;;;5.82;1.88;;;17.00;99.90;;;;;;2616963;54;20220;-41
2021/09/30 14:37:17;;;;;;;6.38;2.28;;;16.40;99.90;;;;;;2616685;54;20145;-41
2021/09/30 14:39:46;;;;;;;5.28;1.50;;;16.00;99.90;;;;;;2617257;54;20145;-41
2021/09/30 14:42:15;;;;;;;5.07;1.95;;;15.60;99.90;;;;;;2617924;54;20138;-40
2021/09/30 14:44:47;;;;;;;5.38;1.85;;;15.50;99.90;;;;;;2617199;54;20223;-41
2021/09/30 14:47:15;;;;;;;7.03;2.10;;;15.60;99.90;;;;;;2617144;39;20566;-41
2021/09/30 14:49:45;;;;;;;3.72;2.22;;;16.00;99.90;;;;;;2616514;54;20145;-41
2021/09/30 14:52:17;;;;;;;4.25;1.52;;;16.20;99.90;;;;;;2616808;54;20137;-41
2021/09/30 14:54:46;;;;;;;3.90;1.63;;;16.10;99.90;;;;;;2616676;54;20172;-41
2021/09/30 14:57:14;;;;;;;4.28;1.67;;;16.20;99.90;;;;;;2616299;54;20153;-40
2021/09/30 14:59:46;;;;;;;8.93;2.45;;;16.70;99.90;;;;;;2616657;54;20666;-41
2021/09/30 15:02:15;;;;;;;4.10;1.10;;;17.50;99.90;;;;;;2616508;54;20137;-41
2021/09/30 15:04:43;;;;;;;3.80;1.30;;;18.30;99.90;;;;;;2616580;54;20180;-42
2021/09/30 15:07:13;;;;;;;8.55;2.35;;;18.70;99.90;;;;;;2616871;47;20146;-40
2021/09/30 15:09:41;;;;;;;2.78;1.83;;;18.60;99.90;;;;;;2616677;54;20188;-41
2021/09/30 15:12:10;;;;;;;5.85;2.40;;;17.90;99.90;;;;;;2616697;54;20157;-41
2021/09/30 15:14:39;;;;;;;6.28;2.50;;;17.40;99.90;;;;;;2616454;54;20173;-41
2021/09/30 15:17:21;;;;;;;3.80;1.75;;;16.60;99.90;;;;;;2616468;54;20156;-41
2021/09/30 15:19:53;;;;;;;6.88;1.73;;;16.60;99.90;;;;;;2616725;54;20145;-41
2021/09/30 15:22:22;;;;;;;7.43;2.38;;;16.80;99.90;;;;;;2616594;54;20195;-42
2021/09/30 15:24:51;;;;;;;12.38;6.38;;;16.90;99.90;;;;;;2616160;54;20180;-41
2021/09/30 15:27:20;;;;;;;5.72;1.52;;;17.10;99.90;;;;;;2616441;54;20153;-41
2021/09/30 15:29:49;;;;;;;2.67;1.52;;;17.20;99.90;;;;;;2616519;54;20149;-41
2021/09/30 15:32:20;;;;;;;4.75;1.83;;;16.90;99.90;;;;;;2616156;54;20145;-40
2021/09/30 15:34:49;;;;;;;4.82;1.85;;;16.50;99.90;;;;;;2616732;54;20177;-41